createdAt,value
2017-11-27T05:00:36.805Z,4.38
2017-11-27T05:01:02.305Z,4.35
2017-11-27T05:01:27.819Z,4.35
2017-11-27T05:01:53.290Z,4.41
2017-11-27T05:02:18.773Z,4.37
2017-11-27T05:02:44.268Z,4.4
2017-11-27T05:03:09.753Z,4.38
2017-11-27T05:03:35.245Z,4.4
2017-11-27T05:04:00.757Z,4.41
2017-11-27T05:04:26.229Z,4.4
2017-11-27T05:04:51.708Z,4.34
2017-11-27T05:05:17.197Z,4.38
2017-11-27T05:05:42.685Z,4.38
2017-11-27T05:06:08.176Z,4.37
2017-11-27T05:06:33.667Z,4.4
2017-11-27T05:06:59.137Z,4.38
2017-11-27T05:07:24.629Z,4.45
2017-11-27T05:07:50.125Z,4.34
2017-11-27T05:08:15.580Z,4.41
2017-11-27T05:08:41.057Z,4.4
2017-11-27T05:09:06.615Z,4.38
2017-11-27T05:09:32.125Z,4.41
2017-11-27T05:09:57.596Z,4.4
2017-11-27T05:10:23.144Z,4.41
2017-11-27T05:10:48.664Z,4.48
2017-11-27T05:11:14.165Z,4.4
2017-11-27T05:11:39.639Z,4.37
2017-11-27T05:12:05.100Z,4.41
2017-11-27T05:12:30.593Z,4.38
2017-11-27T05:12:56.094Z,4.37
2017-11-27T05:13:21.577Z,4.44
2017-11-27T05:13:47.090Z,4.38
2017-11-27T05:14:12.564Z,4.37
2017-11-27T05:14:38.033Z,4.4
2017-11-27T05:15:03.511Z,4.41
2017-11-27T05:15:28.995Z,4.37
2017-11-27T05:15:54.478Z,4.38
2017-11-27T05:16:19.986Z,4.34
2017-11-27T05:16:45.497Z,4.42
2017-11-27T05:17:11.005Z,4.48
2017-11-27T05:18:14.643Z,4.34
2017-11-27T05:18:40.172Z,4.32
2017-11-27T05:19:05.643Z,4.41
2017-11-27T05:19:31.142Z,4.4
2017-11-27T05:19:56.601Z,4.31
2017-11-27T05:20:22.104Z,4.28
2017-11-27T05:20:47.629Z,4.28
2017-11-27T05:21:13.114Z,4.38
2017-11-27T05:21:38.583Z,4.26
2017-11-27T05:22:04.090Z,4.26
2017-11-27T05:22:29.582Z,4.32
2017-11-27T05:22:55.051Z,4.32
2017-11-27T05:23:20.557Z,4.35
2017-11-27T05:23:46.009Z,4.31
2017-11-27T05:24:11.494Z,4.35
2017-11-27T05:24:36.969Z,4.32
2017-11-27T05:25:02.456Z,4.31
2017-11-27T05:25:27.989Z,4.38
2017-11-27T05:25:53.480Z,4.34
2017-11-27T05:26:18.963Z,4.3
2017-11-27T05:26:44.420Z,4.28
2017-11-27T05:27:09.914Z,4.35
2017-11-27T05:27:35.411Z,4.34
2017-11-27T05:28:00.897Z,4.3
2017-11-27T05:28:26.388Z,4.32
2017-11-27T05:28:51.876Z,4.32
2017-11-27T05:29:17.327Z,4.31
2017-11-27T05:29:42.837Z,4.3
2017-11-27T05:30:08.320Z,4.23
2017-11-27T05:30:33.830Z,4.31
2017-11-27T05:30:59.374Z,4.31
2017-11-27T05:31:24.883Z,4.28
2017-11-27T05:31:50.357Z,4.32
2017-11-27T05:32:15.862Z,4.32
2017-11-27T05:32:41.321Z,4.3
2017-11-27T05:33:06.821Z,4.28
2017-11-27T05:33:32.324Z,4.3
2017-11-27T05:33:57.829Z,4.31
2017-11-27T05:34:23.333Z,4.28
2017-11-27T05:34:48.788Z,4.3
2017-11-27T05:35:14.299Z,4.26
2017-11-27T05:35:39.819Z,4.3
2017-11-27T05:36:05.304Z,4.31
2017-11-27T05:36:30.813Z,4.3
2017-11-27T05:36:56.281Z,4.3
2017-11-27T05:37:21.780Z,4.3
2017-11-27T05:37:47.274Z,4.22
2017-11-27T05:38:12.763Z,4.24
2017-11-27T05:38:38.260Z,4.19
2017-11-27T05:39:03.767Z,4.28
2017-11-27T05:39:29.280Z,4.23
2017-11-27T05:39:54.764Z,4.31
2017-11-27T05:40:20.269Z,4.31
2017-11-27T05:40:45.746Z,4.31
2017-11-27T05:41:11.217Z,4.23
2017-11-27T05:41:36.754Z,4.28
2017-11-27T05:42:02.247Z,4.32
2017-11-27T05:42:27.781Z,4.31
2017-11-27T05:42:53.295Z,4.31
2017-11-27T05:43:18.794Z,4.19
2017-11-27T05:43:44.273Z,4.2
2017-11-27T05:44:09.788Z,4.17
2017-11-27T05:44:35.280Z,4.22
2017-11-27T05:45:00.744Z,4.17
2017-11-27T05:45:26.221Z,4.22
2017-11-27T05:45:51.705Z,4.24
2017-11-27T05:46:17.197Z,4.16
2017-11-27T05:46:42.693Z,4.16
2017-11-27T05:47:08.192Z,4.16
2017-11-27T05:47:33.684Z,4.08
2017-11-27T05:47:59.159Z,4.13
2017-11-27T05:48:24.642Z,4.12
2017-11-27T05:48:50.133Z,4.12
2017-11-27T05:49:15.616Z,4.12
2017-11-27T05:49:41.107Z,4.1
2017-11-27T05:50:06.599Z,4.12
2017-11-27T05:50:32.065Z,4.04
2017-11-27T05:50:57.522Z,4.04
2017-11-27T05:51:23.006Z,4.06
2017-11-27T05:51:48.501Z,3.95
2017-11-27T05:52:13.997Z,3.94
2017-11-27T05:52:39.487Z,3.99
2017-11-27T05:53:04.967Z,3.98
2017-11-27T05:53:30.430Z,3.96
2017-11-27T05:53:55.921Z,3.99
2017-11-27T05:54:21.397Z,3.95
2017-11-27T05:54:46.863Z,3.96
2017-11-27T05:55:12.384Z,3.91
2017-11-27T05:55:37.863Z,3.95
2017-11-27T05:56:03.373Z,3.96
2017-11-27T05:56:28.864Z,3.95
2017-11-27T05:56:54.359Z,3.94
2017-11-27T05:57:19.823Z,3.94
2017-11-27T05:57:45.302Z,3.88
2017-11-27T05:58:10.794Z,3.98
2017-11-27T05:58:36.296Z,3.96
2017-11-27T05:59:01.794Z,3.99
2017-11-27T05:59:27.268Z,3.94
2017-11-27T05:59:52.772Z,3.99
2017-11-27T06:00:18.276Z,4.02
2017-11-27T06:00:43.760Z,3.95
2017-11-27T06:01:09.228Z,4.02
2017-11-27T06:01:34.764Z,3.98
2017-11-27T06:02:00.255Z,3.96
2017-11-27T06:02:25.798Z,3.88
2017-11-27T06:02:51.280Z,3.98
2017-11-27T06:03:16.746Z,3.99
2017-11-27T06:03:42.243Z,3.95
2017-11-27T06:04:07.706Z,4.06
2017-11-27T06:04:33.185Z,3.99
2017-11-27T06:04:58.681Z,4.05
2017-11-27T06:05:24.153Z,4.04
2017-11-27T06:05:49.633Z,3.98
2017-11-27T06:06:15.172Z,4.1
2017-11-27T06:06:40.658Z,4.01
2017-11-27T06:07:06.127Z,4.01
2017-11-27T06:07:31.617Z,3.98
2017-11-27T06:07:57.116Z,4.01
2017-11-27T06:08:22.573Z,4.13
2017-11-27T06:08:48.073Z,4.05
2017-11-27T06:09:13.579Z,4.08
2017-11-27T06:09:39.044Z,3.96
2017-11-27T06:10:04.536Z,4.1
2017-11-27T06:10:30.011Z,4.08
2017-11-27T06:10:55.520Z,4.02
2017-11-27T06:11:20.988Z,4.08
2017-11-27T06:11:46.474Z,4.12
2017-11-27T06:12:11.941Z,4.08
2017-11-27T06:12:37.427Z,4.12
2017-11-27T06:13:02.934Z,4.04
2017-11-27T06:13:28.421Z,3.99
2017-11-27T06:13:53.906Z,4.01
2017-11-27T06:14:19.383Z,4.05
2017-11-27T06:14:44.865Z,4.05
2017-11-27T06:15:10.359Z,4.02
2017-11-27T06:15:35.848Z,4.01
2017-11-27T06:16:01.342Z,4.02
2017-11-27T06:16:26.813Z,3.95
2017-11-27T06:16:52.304Z,4.01
2017-11-27T06:17:17.772Z,3.99
2017-11-27T06:17:43.237Z,4.01
2017-11-27T06:18:08.759Z,4.01
2017-11-27T06:18:34.232Z,3.99
2017-11-27T06:18:59.731Z,4.08
2017-11-27T06:19:25.236Z,4.04
2017-11-27T06:19:50.684Z,3.98
2017-11-27T06:20:16.200Z,4.06
2017-11-27T06:20:41.684Z,4.05
2017-11-27T06:21:07.138Z,3.99
2017-11-27T06:21:32.619Z,4.02
2017-11-27T06:21:58.171Z,4.04
2017-11-27T06:22:23.640Z,4.05
2017-11-27T06:22:49.142Z,4.02
2017-11-27T06:23:14.603Z,4.02
2017-11-27T06:23:40.118Z,3.98
2017-11-27T06:24:05.596Z,4.1
2017-11-27T06:24:31.047Z,4.12
2017-11-27T06:24:56.553Z,4.1
2017-11-27T06:25:22.031Z,4.1
2017-11-27T06:25:47.512Z,4.13
2017-11-27T06:26:13.052Z,4.19
2017-11-27T06:26:38.577Z,4.13
2017-11-27T06:27:04.052Z,4.19
2017-11-27T06:27:29.532Z,4.13
2017-11-27T06:27:55.045Z,4.16
2017-11-27T06:28:20.530Z,4.16
2017-11-27T06:28:46.047Z,4.2
2017-11-27T06:29:11.487Z,4.17
2017-11-27T06:29:36.969Z,4.23
2017-11-27T06:30:02.474Z,4.22
2017-11-27T06:30:27.950Z,4.22
2017-11-27T06:30:53.471Z,4.22
2017-11-27T06:31:18.968Z,4.2
2017-11-27T06:31:44.484Z,4.16
2017-11-27T06:32:09.967Z,4.17
2017-11-27T06:32:35.452Z,4.19
2017-11-27T06:33:00.912Z,4.2
2017-11-27T06:33:26.394Z,4.22
2017-11-27T06:33:51.920Z,4.2
2017-11-27T06:34:17.399Z,4.2
2017-11-27T06:34:42.890Z,4.16
2017-11-27T06:35:08.370Z,4.19
2017-11-27T06:35:33.853Z,4.16
2017-11-27T06:36:42.589Z,4.19
2017-11-27T06:37:08.113Z,4.2
2017-11-27T06:37:33.592Z,4.19
2017-11-27T06:37:59.070Z,4.19
2017-11-27T06:38:24.547Z,4.16
2017-11-27T06:38:50.072Z,4.23
2017-11-27T06:39:15.572Z,4.19
2017-11-27T06:39:41.051Z,4.2
2017-11-27T06:40:06.546Z,4.17
2017-11-27T06:40:32.032Z,4.14
2017-11-27T06:40:57.568Z,4.17
2017-11-27T06:41:23.049Z,4.22
2017-11-27T06:41:48.509Z,4.24
2017-11-27T06:42:14.002Z,4.2
2017-11-27T06:42:39.511Z,4.19
2017-11-27T06:43:04.993Z,4.17
2017-11-27T06:43:30.512Z,4.16
2017-11-27T06:43:55.995Z,4.2
2017-11-27T06:44:21.504Z,4.19
2017-11-27T06:44:47.003Z,4.2
2017-11-27T06:45:12.513Z,4.23
2017-11-27T06:45:37.981Z,4.2
2017-11-27T06:46:03.455Z,4.23
2017-11-27T06:46:28.936Z,4.22
2017-11-27T06:46:54.494Z,4.16
2017-11-27T06:47:19.998Z,4.14
2017-11-27T06:47:45.484Z,4.17
2017-11-27T06:48:10.991Z,4.28
2017-11-27T06:48:36.475Z,4.28
2017-11-27T06:49:01.981Z,4.31
2017-11-27T06:49:27.482Z,4.32
2017-11-27T06:49:52.962Z,4.31
2017-11-27T06:50:18.472Z,4.28
2017-11-27T06:50:43.955Z,4.28
2017-11-27T06:51:09.438Z,4.32
2017-11-27T06:51:34.920Z,4.28
2017-11-27T06:52:00.416Z,4.31
2017-11-27T06:52:25.903Z,4.35
2017-11-27T06:52:51.416Z,4.3
2017-11-27T06:53:16.881Z,4.3
2017-11-27T06:53:42.354Z,4.32
2017-11-27T06:54:07.836Z,4.28
2017-11-27T06:54:33.320Z,4.34
2017-11-27T06:54:58.819Z,4.32
2017-11-27T06:55:24.246Z,4.32
2017-11-27T06:55:49.755Z,4.37
2017-11-27T06:56:15.251Z,4.3
2017-11-27T06:56:40.723Z,4.41
2017-11-27T06:57:06.201Z,4.31
2017-11-27T06:57:31.730Z,4.35
2017-11-27T06:57:57.219Z,4.34
2017-11-27T06:58:22.726Z,4.37
2017-11-27T06:58:48.215Z,4.35
2017-11-27T06:59:13.723Z,4.41
2017-11-27T06:59:39.208Z,4.34
2017-11-27T07:00:04.682Z,4.31
2017-11-27T07:00:30.170Z,4.32
2017-11-27T07:00:55.660Z,4.34
2017-11-27T07:01:21.133Z,4.38
2017-11-27T07:01:46.665Z,4.31
2017-11-27T07:02:12.159Z,4.31
2017-11-27T07:02:37.645Z,4.4
2017-11-27T07:03:03.144Z,4.31
2017-11-27T07:03:28.613Z,4.34
2017-11-27T07:03:54.105Z,4.35
2017-11-27T07:04:19.578Z,4.32
2017-11-27T07:04:45.071Z,4.35
2017-11-27T07:05:10.541Z,4.38
2017-11-27T07:05:36.010Z,4.38
2017-11-27T07:06:01.518Z,4.37
2017-11-27T07:06:26.978Z,4.34
2017-11-27T07:06:52.461Z,4.38
2017-11-27T07:07:17.996Z,4.38
2017-11-27T07:07:43.508Z,4.35
2017-11-27T07:08:08.984Z,4.37
2017-11-27T07:08:34.478Z,4.37
2017-11-27T07:08:59.997Z,4.48
2017-11-27T07:09:25.475Z,4.45
2017-11-27T07:10:29.098Z,4.5
2017-11-27T07:10:54.570Z,4.44
2017-11-27T07:11:20.061Z,4.48
2017-11-27T07:11:45.542Z,4.48
2017-11-27T07:12:11.038Z,4.48
2017-11-27T07:12:36.525Z,4.45
2017-11-27T07:13:02.017Z,4.5
2017-11-27T07:13:27.520Z,4.49
2017-11-27T07:13:52.990Z,4.53
2017-11-27T07:14:18.461Z,4.5
2017-11-27T07:14:43.944Z,4.56
2017-11-27T07:15:09.440Z,4.55
2017-11-27T07:15:34.910Z,4.56
2017-11-27T07:16:00.389Z,4.52
2017-11-27T07:16:25.840Z,4.56
2017-11-27T07:16:51.298Z,4.56
2017-11-27T07:17:16.763Z,4.56
2017-11-27T07:17:42.235Z,4.52
2017-11-27T07:18:07.722Z,4.53
2017-11-27T07:18:33.212Z,4.5
2017-11-27T07:18:58.678Z,4.56
2017-11-27T07:19:24.165Z,4.48
2017-11-27T07:19:49.635Z,4.53
2017-11-27T07:20:15.108Z,4.52
2017-11-27T07:20:40.620Z,4.59
2017-11-27T07:21:06.145Z,4.53
2017-11-27T07:21:31.605Z,4.59
2017-11-27T07:21:57.090Z,4.5
2017-11-27T07:22:22.569Z,4.59
2017-11-27T07:22:48.084Z,4.5
2017-11-27T07:23:13.583Z,4.59
2017-11-27T07:23:39.068Z,4.52
2017-11-27T07:24:04.566Z,4.56
2017-11-27T07:24:30.061Z,4.55
2017-11-27T07:24:55.570Z,4.53
2017-11-27T07:25:21.031Z,4.59
2017-11-27T07:25:46.497Z,4.6
2017-11-27T07:26:11.977Z,4.53
2017-11-27T07:26:37.469Z,4.58
2017-11-27T07:27:02.962Z,4.53
2017-11-27T07:27:28.442Z,4.53
2017-11-27T07:27:53.998Z,4.63
2017-11-27T07:28:19.459Z,4.59
2017-11-27T07:28:44.946Z,4.55
2017-11-27T07:29:10.379Z,4.58
2017-11-27T07:29:35.856Z,4.53
2017-11-27T07:30:01.316Z,4.56
2017-11-27T07:30:26.788Z,4.59
2017-11-27T07:30:52.280Z,4.59
2017-11-27T07:31:17.729Z,4.59
2017-11-27T07:31:43.240Z,4.66
2017-11-27T07:32:08.687Z,4.58
2017-11-27T07:32:34.196Z,4.63
2017-11-27T07:32:59.657Z,4.6
2017-11-27T07:33:25.129Z,4.59
2017-11-27T07:33:50.590Z,4.62
2017-11-27T07:34:16.054Z,4.63
2017-11-27T07:34:41.489Z,4.63
2017-11-27T07:35:06.972Z,4.63
2017-11-27T07:35:32.441Z,4.68
2017-11-27T07:35:57.897Z,4.7
2017-11-27T07:36:23.350Z,4.63
2017-11-27T07:36:48.825Z,4.75
2017-11-27T07:37:14.255Z,4.66
2017-11-27T07:37:39.741Z,4.66
2017-11-27T07:38:05.199Z,4.6
2017-11-27T07:38:30.653Z,4.62
2017-11-27T07:38:56.125Z,4.67
2017-11-27T07:39:21.587Z,4.67
2017-11-27T07:39:47.088Z,4.6
2017-11-27T07:40:12.590Z,4.66
2017-11-27T07:40:38.086Z,4.56
2017-11-27T07:41:03.515Z,4.62
2017-11-27T07:41:28.965Z,4.63
2017-11-27T07:41:54.414Z,4.6
2017-11-27T07:42:19.972Z,4.68
2017-11-27T07:42:45.397Z,4.59
2017-11-27T07:43:10.860Z,4.63
2017-11-27T07:43:36.344Z,4.62
2017-11-27T07:44:01.801Z,4.66
2017-11-27T07:44:27.281Z,4.7
2017-11-27T07:44:52.797Z,4.63
2017-11-27T07:45:18.241Z,4.56
2017-11-27T07:45:43.716Z,4.63
2017-11-27T07:46:09.201Z,4.67
2017-11-27T07:46:34.689Z,4.59
2017-11-27T07:47:00.132Z,4.62
2017-11-27T07:47:25.586Z,4.7
2017-11-27T07:47:51.078Z,4.62
2017-11-27T07:48:16.541Z,4.62
2017-11-27T07:48:41.979Z,4.77
2017-11-27T07:49:07.445Z,4.7
2017-11-27T07:49:32.931Z,4.62
2017-11-27T07:49:58.402Z,4.62
2017-11-27T07:50:23.833Z,4.7
2017-11-27T07:50:49.290Z,4.77
2017-11-27T07:51:14.752Z,4.68
2017-11-27T07:51:40.236Z,4.67
2017-11-27T07:52:05.712Z,4.66
2017-11-27T07:52:31.162Z,4.75
2017-11-27T07:52:56.638Z,4.82
2017-11-27T07:53:22.120Z,4.74
2017-11-27T07:53:47.584Z,4.73
2017-11-27T07:54:13.030Z,4.73
2017-11-27T07:54:38.505Z,4.73
2017-11-27T07:55:03.981Z,4.71
2017-11-27T07:55:29.441Z,4.78
2017-11-27T07:55:54.912Z,4.73
2017-11-27T07:56:20.364Z,4.77
2017-11-27T07:56:45.861Z,4.87
2017-11-27T07:57:11.364Z,4.77
2017-11-27T07:57:36.867Z,4.84
2017-11-27T07:58:02.344Z,4.8
2017-11-27T07:58:27.851Z,4.84
2017-11-27T07:58:53.352Z,4.74
2017-11-27T07:59:51.872Z,4.77
2017-11-27T08:00:17.368Z,4.84
2017-11-27T08:00:42.873Z,4.74
2017-11-27T08:01:08.341Z,4.86
2017-11-27T08:01:33.822Z,4.82
2017-11-27T08:01:59.269Z,4.82
2017-11-27T08:02:24.762Z,4.87
2017-11-27T08:02:50.303Z,4.82
2017-11-27T08:03:15.736Z,4.86
2017-11-27T08:03:41.153Z,4.82
2017-11-27T08:04:06.615Z,4.8
2017-11-27T08:04:32.115Z,4.78
2017-11-27T08:04:57.584Z,4.8
2017-11-27T08:05:23.079Z,4.87
2017-11-27T08:05:48.581Z,4.77
2017-11-27T08:06:14.028Z,4.77
2017-11-27T08:06:39.477Z,4.74
2017-11-27T08:07:04.947Z,4.78
2017-11-27T08:07:30.426Z,4.86
2017-11-27T08:07:55.874Z,4.86
2017-11-27T08:08:21.353Z,4.8
2017-11-27T08:08:46.785Z,4.77
2017-11-27T08:09:12.289Z,4.78
2017-11-27T08:09:37.794Z,4.8
2017-11-27T08:10:03.259Z,4.77
2017-11-27T08:10:28.743Z,4.86
2017-11-27T08:10:54.173Z,4.73
2017-11-27T08:11:19.679Z,4.73
2017-11-27T08:11:45.185Z,4.75
2017-11-27T08:12:10.651Z,4.74
2017-11-27T08:12:36.102Z,4.7
2017-11-27T08:13:01.581Z,4.78
2017-11-27T08:13:27.163Z,4.73
2017-11-27T08:13:52.777Z,4.73
2017-11-27T08:14:18.383Z,4.8
2017-11-27T08:14:43.874Z,4.7
2017-11-27T08:15:09.575Z,4.7
2017-11-27T08:15:35.197Z,4.68
2017-11-27T08:16:00.715Z,4.78
2017-11-27T08:16:26.354Z,4.73
2017-11-27T08:16:51.885Z,4.78
2017-11-27T08:17:17.396Z,4.71
2017-11-27T08:17:42.909Z,4.71
2017-11-27T08:18:08.464Z,4.7
2017-11-27T08:18:34.129Z,4.7
2017-11-27T08:18:59.695Z,4.75
2017-11-27T08:19:25.264Z,4.78
2017-11-27T08:19:50.816Z,4.73
2017-11-27T08:20:16.303Z,4.77
2017-11-27T08:20:41.888Z,4.74
2017-11-27T08:21:07.309Z,4.71
2017-11-27T08:21:32.808Z,4.75
2017-11-27T08:21:58.313Z,4.77
2017-11-27T08:22:23.766Z,4.8
2017-11-27T08:22:49.286Z,4.75
2017-11-27T08:23:14.736Z,4.74
2017-11-27T08:23:40.150Z,4.74
2017-11-27T08:24:05.655Z,4.75
2017-11-27T08:24:31.199Z,4.71
2017-11-27T08:24:56.668Z,4.75
2017-11-27T08:25:22.242Z,4.77
2017-11-27T08:25:47.704Z,4.74
2017-11-27T08:26:13.215Z,4.75
2017-11-27T08:26:38.718Z,4.78
2017-11-27T08:27:04.199Z,4.74
2017-11-27T08:27:29.661Z,4.74
2017-11-27T08:27:55.139Z,4.7
2017-11-27T08:28:20.595Z,4.75
2017-11-27T08:28:46.085Z,4.78
2017-11-27T08:29:11.581Z,4.74
2017-11-27T08:29:37.103Z,4.78
2017-11-27T08:30:02.620Z,4.71
2017-11-27T08:30:28.100Z,4.71
2017-11-27T08:30:53.617Z,4.73
2017-11-27T08:31:19.058Z,4.71
2017-11-27T08:31:44.542Z,4.78
2017-11-27T08:32:10.033Z,4.78
2017-11-27T08:32:35.507Z,4.7
2017-11-27T08:33:01.016Z,4.73
2017-11-27T08:33:26.496Z,4.78
2017-11-27T08:33:51.986Z,4.78
2017-11-27T08:34:17.453Z,4.71
2017-11-27T08:34:42.994Z,4.78
2017-11-27T08:35:08.476Z,4.82
2017-11-27T08:35:33.965Z,4.75
2017-11-27T08:35:59.482Z,4.73
2017-11-27T08:36:24.968Z,4.74
2017-11-27T08:36:50.490Z,4.77
2017-11-27T08:37:15.991Z,4.74
2017-11-27T08:37:41.458Z,4.73
2017-11-27T08:38:06.922Z,4.82
2017-11-27T08:38:32.400Z,4.74
2017-11-27T08:38:57.889Z,4.73
2017-11-27T08:39:23.353Z,4.74
2017-11-27T08:39:48.817Z,4.7
2017-11-27T08:40:14.320Z,4.73
2017-11-27T08:40:39.845Z,4.73
2017-11-27T08:41:05.273Z,4.71
2017-11-27T08:41:30.770Z,4.8
2017-11-27T08:41:56.207Z,4.7
2017-11-27T08:42:21.733Z,4.68
2017-11-27T08:42:47.224Z,4.7
2017-11-27T08:43:12.687Z,4.74
2017-11-27T08:43:38.181Z,4.8
2017-11-27T08:44:03.683Z,4.7
2017-11-27T08:44:29.185Z,4.73
2017-11-27T08:44:54.677Z,4.74
2017-11-27T08:45:20.178Z,4.84
2017-11-27T08:45:45.695Z,4.8
2017-11-27T08:46:11.181Z,4.8
2017-11-27T08:46:36.653Z,4.73
2017-11-27T08:47:02.168Z,4.77
2017-11-27T08:47:27.645Z,4.78
2017-11-27T08:47:53.165Z,4.87
2017-11-27T08:48:18.647Z,4.78
2017-11-27T08:48:44.137Z,4.82
2017-11-27T08:49:09.604Z,4.77
2017-11-27T08:49:35.101Z,4.78
2017-11-27T08:50:00.604Z,4.84
2017-11-27T08:50:26.093Z,4.78
2017-11-27T08:50:51.625Z,4.86
2017-11-27T08:51:17.119Z,4.82
2017-11-27T08:51:42.616Z,4.77
2017-11-27T08:52:08.102Z,4.86
2017-11-27T08:52:33.575Z,4.8
2017-11-27T08:52:59.088Z,4.87
2017-11-27T08:53:24.550Z,4.93
2017-11-27T08:53:50.036Z,4.8
2017-11-27T08:54:15.516Z,4.82
2017-11-27T08:54:41.006Z,4.86
2017-11-27T08:55:06.507Z,4.9
2017-11-27T08:55:31.965Z,4.94
2017-11-27T08:55:57.461Z,4.92
2017-11-27T08:56:22.953Z,4.92
2017-11-27T08:56:48.449Z,4.84
2017-11-27T08:57:13.959Z,4.89
2017-11-27T08:57:39.473Z,4.9
2017-11-27T08:58:04.970Z,4.92
2017-11-27T08:58:30.441Z,4.93
2017-11-27T08:58:55.935Z,4.87
2017-11-27T08:59:21.439Z,4.92
2017-11-27T08:59:46.926Z,4.9
2017-11-27T09:00:12.443Z,4.94
2017-11-27T09:00:37.957Z,4.94
2017-11-27T09:01:03.426Z,4.84
2017-11-27T09:01:28.970Z,4.87
2017-11-27T09:01:54.461Z,4.9
2017-11-27T09:02:20.031Z,4.99
2017-11-27T09:02:45.477Z,4.93
2017-11-27T09:03:10.968Z,4.96
2017-11-27T09:03:36.509Z,4.97
2017-11-27T09:04:01.989Z,4.94
2017-11-27T09:04:27.461Z,4.9
2017-11-27T09:04:52.962Z,4.93
2017-11-27T09:05:18.450Z,4.9
2017-11-27T09:05:43.936Z,4.9
2017-11-27T09:06:09.404Z,4.93
2017-11-27T09:06:34.901Z,4.94
2017-11-27T09:07:00.424Z,4.94
2017-11-27T09:07:25.896Z,4.94
2017-11-27T09:07:51.394Z,4.92
2017-11-27T09:08:16.880Z,4.96
2017-11-27T09:08:42.356Z,4.92
2017-11-27T09:09:07.859Z,4.94
2017-11-27T09:09:33.389Z,4.96
2017-11-27T09:09:58.899Z,4.93
2017-11-27T09:10:24.405Z,4.87
2017-11-27T09:10:49.882Z,4.87
2017-11-27T09:11:15.352Z,4.94
2017-11-27T09:11:40.851Z,4.96
2017-11-27T09:12:06.388Z,4.93
2017-11-27T09:12:31.869Z,4.89
2017-11-27T09:12:57.350Z,4.99
2017-11-27T09:13:22.871Z,4.97
2017-11-27T09:13:48.388Z,4.89
2017-11-27T09:14:13.877Z,4.99
2017-11-27T09:14:39.340Z,4.93
2017-11-27T09:15:04.825Z,4.92
2017-11-27T09:15:30.300Z,4.97
2017-11-27T09:15:55.788Z,4.99
2017-11-27T09:16:21.271Z,4.97
2017-11-27T09:16:46.774Z,4.9
2017-11-27T09:17:12.249Z,4.94
2017-11-27T09:17:37.681Z,4.93
2017-11-27T09:18:03.176Z,4.97
2017-11-27T09:18:28.633Z,4.97
2017-11-27T09:18:54.125Z,4.96
2017-11-27T09:19:19.629Z,4.92
2017-11-27T09:19:45.051Z,4.97
2017-11-27T09:20:10.508Z,4.97
2017-11-27T09:20:35.959Z,5.04
2017-11-27T09:21:01.469Z,4.92
2017-11-27T09:21:26.918Z,4.96
2017-11-27T09:21:52.380Z,4.94
2017-11-27T09:22:17.853Z,4.96
2017-11-27T09:22:43.276Z,5.05
2017-11-27T09:23:08.761Z,5.02
2017-11-27T09:23:34.244Z,4.99
2017-11-27T09:23:59.749Z,5
2017-11-27T09:24:25.199Z,5.02
2017-11-27T09:24:50.671Z,5.04
2017-11-27T09:25:16.185Z,4.92
2017-11-27T09:25:41.647Z,4.99
2017-11-27T09:26:07.039Z,4.99
2017-11-27T09:26:32.550Z,4.96
2017-11-27T09:26:58.007Z,4.92
2017-11-27T09:27:23.429Z,4.99
2017-11-27T09:27:48.926Z,5.04
2017-11-27T09:28:14.413Z,4.94
2017-11-27T09:28:39.923Z,4.97
2017-11-27T09:29:05.340Z,4.94
2017-11-27T09:29:30.797Z,4.99
2017-11-27T09:29:56.278Z,5.04
2017-11-27T09:30:21.726Z,4.97
2017-11-27T09:30:47.201Z,4.96
2017-11-27T09:31:12.734Z,4.93
2017-11-27T09:31:38.159Z,4.97
2017-11-27T09:32:03.608Z,4.96
2017-11-27T09:32:29.069Z,5
2017-11-27T09:32:54.559Z,5.02
2017-11-27T09:33:20.061Z,5.04
2017-11-27T09:33:45.474Z,4.99
2017-11-27T09:34:11.074Z,4.94
2017-11-27T09:34:36.471Z,5
2017-11-27T09:35:01.979Z,4.99
2017-11-27T09:35:27.385Z,4.99
2017-11-27T09:35:52.869Z,4.99
2017-11-27T09:36:18.387Z,5.04
2017-11-27T09:36:43.856Z,4.97
2017-11-27T09:37:09.310Z,5
2017-11-27T09:37:34.794Z,4.96
2017-11-27T09:38:00.283Z,4.99
2017-11-27T09:38:25.776Z,4.97
2017-11-27T09:38:51.236Z,5.04
2017-11-27T09:39:16.684Z,5.02
2017-11-27T09:39:42.119Z,5.07
2017-11-27T09:40:07.628Z,5.05
2017-11-27T09:40:33.064Z,5.05
2017-11-27T09:40:58.540Z,4.94
2017-11-27T09:41:23.977Z,5.07
2017-11-27T09:41:49.432Z,5.05
2017-11-27T09:42:14.914Z,4.99
2017-11-27T09:42:40.420Z,5.04
2017-11-27T09:43:05.907Z,4.97
2017-11-27T09:43:31.378Z,5.02
2017-11-27T09:43:56.817Z,5.07
2017-11-27T09:44:22.310Z,5.04
2017-11-27T09:44:47.713Z,5.08
2017-11-27T09:45:13.176Z,5.05
2017-11-27T09:45:38.668Z,5.04
2017-11-27T09:46:04.157Z,5.04
2017-11-27T09:46:29.632Z,5.08
2017-11-27T09:46:55.062Z,5.11
2017-11-27T09:47:20.567Z,5.08
2017-11-27T09:47:46.028Z,5.08
2017-11-27T09:48:11.483Z,5.12
2017-11-27T09:48:36.947Z,4.97
2017-11-27T09:49:02.459Z,5.14
2017-11-27T09:49:27.872Z,5.11
2017-11-27T09:49:53.385Z,5.05
2017-11-27T09:50:18.825Z,5.11
2017-11-27T09:50:44.265Z,5.11
2017-11-27T09:51:09.810Z,5.1
2017-11-27T09:51:35.260Z,5.1
2017-11-27T09:52:00.748Z,5.08
2017-11-27T09:52:26.231Z,5.11
2017-11-27T09:52:51.692Z,5.1
2017-11-27T09:53:17.214Z,5.04
2017-11-27T09:53:42.638Z,5.12
2017-11-27T09:54:08.127Z,5.1
2017-11-27T09:54:33.595Z,5.15
2017-11-27T09:54:59.100Z,5.14
2017-11-27T09:55:24.625Z,5.1
2017-11-27T09:55:50.027Z,5.12
2017-11-27T09:56:15.541Z,5.1
2017-11-27T09:56:40.958Z,5.17
2017-11-27T09:57:06.502Z,5.1
2017-11-27T09:57:31.925Z,5.18
2017-11-27T09:57:57.391Z,5.15
2017-11-27T09:58:22.910Z,5.18
2017-11-27T09:58:48.371Z,5.21
2017-11-27T09:59:13.893Z,5.2
2017-11-27T09:59:39.391Z,5.15
2017-11-27T10:00:04.859Z,5.18
2017-11-27T10:00:30.330Z,5.14
2017-11-27T10:00:55.793Z,5.15
2017-11-27T10:01:21.268Z,5.17
2017-11-27T10:01:46.676Z,5.15
2017-11-27T10:02:12.150Z,5.2
2017-11-27T10:02:37.644Z,5.18
2017-11-27T10:03:03.187Z,5.14
2017-11-27T10:03:28.653Z,5.17
2017-11-27T10:03:54.150Z,5.2
2017-11-27T10:04:19.602Z,5.23
2017-11-27T10:04:45.049Z,5.21
2017-11-27T10:05:10.499Z,5.2
2017-11-27T10:05:35.972Z,5.23
2017-11-27T10:06:01.381Z,5.2
2017-11-27T10:06:26.894Z,5.28
2017-11-27T10:06:52.338Z,5.21
2017-11-27T10:07:17.778Z,5.28
2017-11-27T10:07:43.245Z,5.26
2017-11-27T10:08:08.737Z,5.21
2017-11-27T10:08:34.156Z,5.28
2017-11-27T10:08:59.638Z,5.26
2017-11-27T10:09:25.138Z,5.28
2017-11-27T10:09:50.710Z,5.29
2017-11-27T10:10:16.102Z,5.28
2017-11-27T10:10:41.556Z,5.21
2017-11-27T10:11:07.020Z,5.28
2017-11-27T10:11:32.533Z,5.3
2017-11-27T10:11:58.031Z,5.25
2017-11-27T10:12:23.519Z,5.26
2017-11-27T10:12:48.942Z,5.26
2017-11-27T10:13:14.414Z,5.28
2017-11-27T10:13:39.819Z,5.25
2017-11-27T10:14:05.327Z,5.23
2017-11-27T10:14:30.764Z,5.21
2017-11-27T10:14:56.201Z,5.23
2017-11-27T10:15:21.678Z,5.23
2017-11-27T10:15:47.160Z,5.26
2017-11-27T10:16:12.594Z,5.23
2017-11-27T10:16:38.109Z,5.25
2017-11-27T10:17:03.618Z,5.32
2017-11-27T10:17:29.095Z,5.28
2017-11-27T10:17:54.572Z,5.33
2017-11-27T10:18:20.043Z,5.33
2017-11-27T10:18:45.537Z,5.36
2017-11-27T10:19:10.998Z,5.36
2017-11-27T10:19:36.488Z,5.32
2017-11-27T10:20:02.010Z,5.33
2017-11-27T10:20:27.459Z,5.33
2017-11-27T10:20:52.946Z,5.35
2017-11-27T10:21:18.475Z,5.36
2017-11-27T10:21:43.962Z,5.35
2017-11-27T10:22:09.464Z,5.36
2017-11-27T10:22:34.940Z,5.3
2017-11-27T10:23:00.397Z,5.32
2017-11-27T10:23:25.889Z,5.32
2017-11-27T10:23:51.331Z,5.39
2017-11-27T10:24:16.828Z,5.3
2017-11-27T10:24:42.325Z,5.43
2017-11-27T10:25:07.785Z,5.32
2017-11-27T10:25:33.295Z,5.33
2017-11-27T10:25:58.796Z,5.44
2017-11-27T10:26:24.309Z,5.3
2017-11-27T10:26:49.795Z,5.33
2017-11-27T10:27:15.293Z,5.38
2017-11-27T10:27:40.753Z,5.3
2017-11-27T10:28:06.257Z,5.39
2017-11-27T10:28:31.722Z,5.43
2017-11-27T10:28:57.197Z,5.36
2017-11-27T10:29:22.675Z,5.38
2017-11-27T10:29:48.178Z,5.47
2017-11-27T10:30:13.686Z,5.51
2017-11-27T10:30:39.155Z,5.44
2017-11-27T10:31:04.662Z,5.41
2017-11-27T10:31:30.137Z,5.36
2017-11-27T10:31:55.674Z,5.46
2017-11-27T10:32:21.186Z,5.41
2017-11-27T10:32:46.669Z,5.51
2017-11-27T10:33:12.179Z,5.48
2017-11-27T10:33:37.693Z,5.43
2017-11-27T10:34:03.213Z,5.43
2017-11-27T10:34:28.710Z,5.46
2017-11-27T10:34:54.157Z,5.41
2017-11-27T10:35:19.607Z,5.46
2017-11-27T10:35:45.080Z,5.46
2017-11-27T10:36:10.575Z,5.47
2017-11-27T10:36:36.085Z,5.44
2017-11-27T10:37:01.561Z,5.44
2017-11-27T10:37:27.059Z,5.46
2017-11-27T10:37:52.532Z,5.46
2017-11-27T10:38:18.054Z,5.48
2017-11-27T10:38:43.560Z,5.43
2017-11-27T10:39:09.062Z,5.44
2017-11-27T10:39:34.649Z,5.46
2017-11-27T10:40:00.107Z,5.46
2017-11-27T10:40:25.653Z,5.47
2017-11-27T10:40:51.141Z,5.46
2017-11-27T10:41:16.640Z,5.47
2017-11-27T10:41:42.137Z,5.5
2017-11-27T10:42:07.640Z,5.48
2017-11-27T10:42:33.110Z,5.54
2017-11-27T10:42:58.621Z,5.59
2017-11-27T10:43:24.194Z,5.47
2017-11-27T10:43:49.669Z,5.57